createdAt,value
2022-11-13T00:01:21.732Z,13.20
2022-11-13T00:03:49.231Z,14.52
2022-11-13T00:06:18.764Z,13.65
2022-11-13T00:08:46.375Z,12.50
2022-11-13T00:11:18.471Z,13.00
2022-11-13T00:13:46.503Z,12.57
2022-11-13T00:16:17.873Z,11.88
2022-11-13T00:18:45.844Z,12.70
2022-11-13T00:21:23.128Z,12.07
2022-11-13T00:23:51.575Z,12.10
2022-11-13T00:26:28.269Z,12.07
2022-11-13T00:29:04.374Z,12.10
2022-11-13T00:31:31.551Z,12.00
2022-11-13T00:34:33.589Z,11.25
2022-11-13T00:36:46.631Z,11.75
2022-11-13T00:39:13.414Z,11.10
2022-11-13T00:41:40.154Z,10.75
2022-11-13T00:44:06.973Z,10.65
2022-11-13T00:46:33.733Z,11.15
2022-11-13T00:49:00.708Z,11.75
2022-11-13T00:51:27.574Z,11.15
2022-11-13T00:53:54.344Z,10.93
2022-11-13T00:56:21.288Z,9.77
2022-11-13T00:58:48.053Z,10.38
2022-11-13T01:01:18.387Z,10.45
2022-11-13T01:03:45.992Z,10.43
2022-11-13T01:06:21.690Z,9.38
2022-11-13T01:08:49.033Z,9.57
2022-11-13T01:11:20.638Z,10.15
2022-11-13T01:13:49.957Z,10.20
2022-11-13T01:16:20.836Z,10.38
2022-11-13T01:18:48.122Z,10.05
2022-11-13T01:21:19.477Z,10.40
2022-11-13T01:23:46.590Z,10.13
2022-11-13T01:26:31.959Z,10.27
2022-11-13T01:29:00.501Z,10.25
2022-11-13T01:31:30.638Z,10.65
2022-11-13T01:33:58.010Z,10.27
2022-11-13T01:36:28.144Z,9.77
2022-11-13T01:38:56.038Z,10.20
2022-11-13T01:41:33.678Z,10.55
2022-11-13T01:44:01.602Z,10.15
2022-11-13T01:46:41.689Z,11.30
2022-11-13T01:49:08.497Z,10.93
2022-11-13T01:51:52.840Z,11.15
2022-11-13T01:54:25.554Z,11.23
2022-11-13T01:56:53.850Z,10.00
2022-11-13T01:59:28.995Z,10.00
2022-11-13T02:01:56.935Z,10.13
2022-11-13T02:04:25.311Z,9.70
2022-11-13T02:07:05.748Z,9.63
2022-11-13T02:09:38.045Z,10.00
2022-11-13T02:12:08.844Z,9.43
2022-11-13T02:14:40.944Z,9.45
2022-11-13T02:17:15.217Z,9.15
2022-11-13T02:19:49.620Z,9.10
2022-11-13T02:22:20.150Z,9.18
2022-11-13T02:24:54.483Z,9.90
2022-11-13T02:27:33.066Z,9.63
2022-11-13T02:30:12.837Z,10.48
2022-11-13T02:32:45.685Z,8.88
2022-11-13T02:35:22.804Z,10.85
2022-11-13T02:37:49.524Z,9.60
2022-11-13T02:40:17.989Z,10.65
2022-11-13T02:42:44.704Z,10.82
2022-11-13T02:45:11.505Z,10.98
2022-11-13T02:47:38.265Z,10.55
2022-11-13T02:50:06.195Z,11.48
2022-11-13T02:52:33.002Z,11.13
2022-11-13T02:54:59.772Z,12.00
2022-11-13T02:57:26.509Z,10.90
2022-11-13T02:59:53.253Z,11.45
2022-11-13T03:02:19.982Z,11.80
2022-11-13T03:05:12.471Z,10.68
2022-11-13T03:07:33.397Z,10.25
2022-11-13T03:10:00.189Z,11.15
2022-11-13T03:12:26.926Z,11.27
2022-11-13T03:14:53.689Z,9.95
2022-11-13T03:17:20.449Z,10.95
2022-11-13T03:19:47.178Z,10.70
2022-11-13T03:22:13.955Z,10.00
2022-11-13T03:24:40.892Z,10.50
2022-11-13T03:27:07.645Z,10.63
2022-11-13T03:29:34.470Z,9.63
2022-11-13T03:32:03.333Z,9.65
2022-11-13T03:34:30.242Z,9.32
2022-11-13T03:36:56.987Z,9.07
2022-11-13T03:39:23.912Z,9.32
2022-11-13T03:41:50.837Z,8.70
2022-11-13T03:44:17.781Z,8.93
2022-11-13T03:46:44.514Z,9.20
2022-11-13T03:49:11.254Z,8.57
2022-11-13T03:51:38.019Z,9.07
2022-11-13T03:54:04.779Z,8.75
2022-11-13T03:56:31.504Z,7.90
2022-11-13T03:58:58.450Z,8.60
2022-11-13T04:01:25.318Z,7.35
2022-11-13T04:03:52.074Z,7.72
2022-11-13T04:06:18.888Z,8.25
2022-11-13T04:08:45.615Z,7.75
2022-11-13T04:11:13.541Z,7.53
2022-11-13T04:13:40.352Z,7.38
2022-11-13T04:16:07.549Z,6.45
2022-11-13T04:18:34.309Z,6.70
2022-11-13T04:21:04.277Z,8.48
2022-11-13T04:23:31.570Z,6.93
2022-11-13T04:25:58.964Z,7.05
2022-11-13T04:28:26.155Z,6.88
2022-11-13T04:30:54.783Z,6.55
2022-11-13T04:33:21.721Z,6.55
2022-11-13T04:35:50.160Z,7.28
2022-11-13T04:38:17.046Z,7.45
2022-11-13T04:40:44.141Z,6.85
2022-11-13T04:43:11.140Z,6.65
2022-11-13T04:45:38.322Z,7.45
2022-11-13T04:48:05.291Z,6.75
2022-11-13T04:50:32.157Z,7.15
2022-11-13T04:52:59.802Z,7.43
2022-11-13T04:55:26.604Z,6.95
2022-11-13T04:57:55.500Z,6.82
2022-11-13T05:00:23.031Z,6.80
2022-11-13T05:02:49.945Z,6.97
2022-11-13T05:05:16.819Z,7.13
2022-11-13T05:07:43.582Z,7.50
2022-11-13T05:10:10.641Z,7.40
2022-11-13T05:12:37.440Z,6.78
2022-11-13T05:15:05.272Z,7.00
2022-11-13T05:17:32.036Z,6.53
2022-11-13T05:19:58.841Z,6.20
2022-11-13T05:22:25.612Z,6.80
2022-11-13T05:24:52.370Z,6.97
2022-11-13T05:27:19.180Z,6.80
2022-11-13T05:29:45.917Z,7.07
2022-11-13T05:32:12.669Z,6.80
2022-11-13T05:34:39.393Z,6.88
2022-11-13T05:37:06.137Z,7.32
2022-11-13T05:39:32.850Z,7.88
2022-11-13T05:41:59.964Z,7.30
2022-11-13T05:44:26.676Z,7.63
2022-11-13T05:46:53.426Z,7.60
2022-11-13T05:49:20.209Z,7.90
2022-11-13T05:51:46.956Z,7.88
2022-11-13T05:54:13.781Z,7.50
2022-11-13T05:56:40.603Z,7.90
2022-11-13T05:59:08.042Z,8.88
2022-11-13T06:01:38.933Z,8.00
2022-11-13T06:04:07.820Z,9.35
2022-11-13T06:06:35.144Z,9.32
2022-11-13T06:09:05.515Z,10.70
2022-11-13T06:11:32.771Z,10.90
2022-11-13T06:14:00.364Z,10.38
2022-11-13T06:16:30.735Z,11.68
2022-11-13T06:19:03.634Z,12.45
2022-11-13T06:21:35.034Z,12.27
2022-11-13T06:24:02.435Z,12.23
2022-11-13T06:26:35.681Z,12.23
2022-11-13T06:29:04.291Z,12.07
2022-11-13T06:31:34.763Z,12.32
2022-11-13T06:34:02.357Z,13.13
2022-11-13T06:36:33.095Z,12.05
2022-11-13T06:39:00.787Z,14.43
2022-11-13T06:41:31.305Z,11.68
2022-11-13T06:44:03.123Z,11.60
2022-11-13T06:46:30.826Z,12.48
2022-11-13T06:48:58.432Z,11.10
2022-11-13T06:51:28.901Z,12.18
2022-11-13T06:53:57.013Z,11.27
2022-11-13T06:56:25.004Z,10.38
2022-11-13T06:58:51.985Z,9.00
2022-11-13T07:01:24.792Z,9.77
2022-11-13T07:03:51.709Z,9.77
2022-11-13T07:06:21.571Z,8.88
2022-11-13T07:08:49.426Z,9.25
2022-11-13T07:11:22.758Z,8.85
2022-11-13T07:13:50.270Z,8.23
2022-11-13T07:16:18.526Z,8.35
2022-11-13T07:18:54.966Z,7.80
2022-11-13T07:21:22.776Z,8.02
2022-11-13T07:23:50.979Z,7.53
2022-11-13T07:26:19.189Z,8.50
2022-11-13T07:28:47.453Z,8.00
2022-11-13T07:31:17.192Z,8.73
2022-11-13T07:33:44.635Z,9.10
2022-11-13T07:36:11.693Z,8.20
2022-11-13T07:38:38.432Z,9.07
2022-11-13T07:41:06.247Z,8.90
2022-11-13T07:43:34.209Z,9.10
2022-11-13T07:46:01.738Z,9.07
2022-11-13T07:48:29.987Z,9.68
2022-11-13T07:51:02.483Z,8.85
2022-11-13T07:53:30.738Z,9.88
2022-11-13T07:56:01.928Z,10.25
2022-11-13T07:58:30.306Z,9.23
2022-11-13T08:01:04.418Z,9.77
2022-11-13T08:06:07.633Z,9.68
2022-11-13T08:08:35.581Z,9.88
2022-11-13T08:11:07.629Z,9.57
2022-11-13T08:13:35.854Z,10.48
2022-11-13T08:16:04.346Z,10.80
2022-11-13T08:18:32.790Z,10.60
2022-11-13T08:21:08.107Z,10.98
2022-11-13T08:23:40.963Z,10.20
2022-11-13T08:26:08.764Z,10.23
2022-11-13T08:28:36.321Z,11.15
2022-11-13T08:31:04.116Z,10.52
2022-11-13T08:33:31.536Z,10.13
2022-11-13T08:36:00.366Z,9.80
2022-11-13T08:38:27.883Z,10.20
2022-11-13T08:41:08.612Z,10.75
2022-11-13T08:43:36.297Z,10.32
2022-11-13T08:46:03.192Z,10.02
2022-11-13T08:48:30.252Z,10.73
2022-11-13T08:50:58.163Z,11.25
2022-11-13T08:53:26.285Z,11.40
2022-11-13T08:55:53.022Z,10.43
2022-11-13T08:58:19.765Z,11.60
2022-11-13T09:00:47.188Z,11.80
2022-11-13T09:03:13.967Z,11.35
2022-11-13T09:05:40.685Z,11.32
2022-11-13T09:08:07.516Z,10.80
2022-11-13T09:10:34.326Z,10.73
2022-11-13T09:13:05.006Z,11.02
2022-11-13T09:15:32.679Z,11.57
2022-11-13T09:18:01.471Z,10.20
2022-11-13T09:20:30.767Z,10.98
2022-11-13T09:23:08.027Z,11.20
2022-11-13T09:25:38.028Z,11.57
2022-11-13T09:28:06.661Z,11.00
2022-11-13T09:30:34.113Z,11.35
2022-11-13T09:33:01.709Z,10.73
2022-11-13T09:35:36.431Z,11.07
2022-11-13T09:38:15.403Z,11.00
2022-11-13T09:40:58.447Z,10.82
2022-11-13T09:43:44.278Z,10.60
2022-11-13T09:46:35.109Z,9.77
2022-11-13T09:49:25.841Z,10.50
2022-11-13T09:52:06.642Z,9.45
2022-11-13T09:54:34.168Z,9.95
2022-11-13T09:57:25.586Z,10.77
2022-11-13T10:00:20.850Z,10.35
2022-11-13T10:03:59.974Z,10.50
2022-11-13T10:06:39.930Z,9.38
2022-11-13T10:09:34.218Z,9.13
2022-11-13T10:12:08.204Z,9.05
2022-11-13T10:17:31.861Z,8.55
2022-11-13T10:20:05.097Z,8.40
2022-11-13T10:22:43.776Z,9.20
2022-11-13T10:25:25.634Z,8.73
2022-11-13T10:27:59.735Z,8.23
2022-11-13T10:30:28.116Z,10.23
2022-11-13T10:33:01.723Z,8.90
2022-11-13T10:35:35.369Z,9.38
2022-11-13T10:38:25.622Z,8.55
2022-11-13T10:40:52.572Z,8.23
2022-11-13T10:43:24.797Z,9.32
2022-11-13T10:46:02.800Z,9.25
2022-11-13T10:48:36.725Z,8.75
2022-11-13T10:53:48.850Z,8.95
2022-11-13T10:56:34.614Z,8.00
2022-11-13T10:59:20.355Z,7.85
2022-11-13T11:01:47.978Z,8.32
2022-11-13T11:04:29.667Z,8.48
2022-11-13T11:07:21.050Z,8.70
2022-11-13T11:09:51.317Z,8.23
2022-11-13T11:12:30.350Z,8.63
2022-11-13T11:14:58.318Z,8.55
2022-11-13T11:17:57.581Z,8.23
2022-11-13T11:20:43.645Z,8.50
2022-11-13T11:23:55.785Z,8.48
2022-11-13T11:26:45.216Z,9.55
2022-11-13T11:29:26.520Z,8.27
2022-11-13T11:32:13.773Z,8.85
2022-11-13T11:35:01.133Z,7.65
2022-11-13T11:37:39.452Z,8.05
2022-11-13T11:40:13.618Z,7.75
2022-11-13T11:43:18.690Z,7.97
2022-11-13T11:45:47.708Z,7.88
2022-11-13T11:48:26.053Z,8.25
2022-11-13T11:51:16.066Z,7.82
2022-11-13T11:54:07.461Z,7.75
2022-11-13T11:56:50.763Z,8.93
2022-11-13T11:59:44.603Z,8.57
2022-11-13T12:02:45.088Z,8.13
2022-11-13T12:05:29.658Z,8.40
2022-11-13T12:08:41.093Z,8.05
2022-11-13T12:11:40.153Z,8.05
2022-11-13T12:14:27.354Z,8.38
2022-11-13T12:17:47.393Z,8.52
2022-11-13T12:20:35.079Z,8.50
2022-11-13T12:23:16.559Z,8.52
2022-11-13T12:26:36.129Z,8.30
2022-11-13T12:29:45.658Z,9.55
2022-11-13T12:32:34.290Z,9.20
2022-11-13T12:35:19.331Z,9.13
2022-11-13T12:38:32.769Z,8.88
2022-11-13T12:41:36.151Z,9.35
2022-11-13T12:44:25.428Z,9.90
2022-11-13T12:46:55.479Z,10.20
2022-11-13T12:49:33.790Z,9.93
2022-11-13T12:52:24.270Z,9.85
2022-11-13T12:54:52.403Z,9.30
2022-11-13T12:57:29.910Z,9.48
2022-11-13T13:00:10.710Z,8.75
2022-11-13T13:02:53.475Z,9.60
2022-11-13T13:05:55.363Z,9.38
2022-11-13T13:09:17.474Z,9.63
2022-11-13T13:12:05.624Z,9.90
2022-11-13T13:14:46.324Z,9.18
2022-11-13T13:17:15.828Z,9.65
2022-11-13T13:19:42.829Z,9.80
2022-11-13T13:22:12.495Z,9.52
2022-11-13T13:24:39.641Z,9.63
2022-11-13T13:27:29.476Z,9.07
2022-11-13T13:29:57.737Z,9.63
2022-11-13T13:33:11.225Z,9.80
2022-11-13T13:35:51.798Z,9.05
2022-11-13T13:38:37.027Z,8.80
2022-11-13T13:41:33.491Z,9.82
2022-11-13T13:44:37.606Z,9.18
2022-11-13T13:47:23.237Z,8.65
2022-11-13T13:49:52.119Z,9.40
2022-11-13T13:52:31.529Z,9.82
2022-11-13T13:55:01.889Z,9.43
2022-11-13T13:57:30.348Z,8.77
2022-11-13T13:59:57.935Z,9.18
2022-11-13T14:02:24.983Z,9.30
2022-11-13T14:04:54.510Z,9.43
2022-11-13T14:07:30.733Z,9.35
2022-11-13T14:10:12.947Z,9.57
2022-11-13T14:12:45.883Z,9.45
2022-11-13T14:15:32.839Z,9.68
2022-11-13T14:18:17.801Z,9.60
2022-11-13T14:20:55.516Z,8.70
2022-11-13T14:23:34.428Z,8.73
2022-11-13T14:26:06.646Z,7.97
2022-11-13T14:28:46.264Z,9.15
2022-11-13T14:31:16.163Z,8.82
2022-11-13T14:33:47.977Z,8.27
2022-11-13T14:36:24.457Z,9.18
2022-11-13T14:38:52.590Z,10.10
2022-11-13T14:41:35.175Z,9.27
2022-11-13T14:44:02.649Z,8.68
2022-11-13T14:46:44.612Z,8.45
2022-11-13T14:49:50.162Z,8.50
2022-11-13T14:52:22.056Z,8.77
2022-11-13T14:55:13.610Z,8.52
2022-11-13T14:57:35.613Z,8.95
2022-11-13T15:00:25.898Z,8.63
2022-11-13T15:02:52.851Z,9.13
2022-11-13T15:05:19.724Z,9.13
2022-11-13T15:07:46.934Z,9.38
2022-11-13T15:10:18.925Z,9.43
2022-11-13T15:12:45.758Z,9.70
2022-11-13T15:15:19.699Z,9.32
2022-11-13T15:20:33.614Z,9.65
2022-11-13T15:23:00.609Z,9.88
2022-11-13T15:25:27.708Z,9.90
2022-11-13T15:27:54.648Z,10.15
2022-11-13T15:30:21.682Z,9.90
2022-11-13T15:32:53.693Z,8.68
2022-11-13T15:35:21.681Z,10.35
2022-11-13T15:37:48.561Z,10.00
2022-11-13T15:40:15.837Z,10.05
2022-11-13T15:42:43.799Z,9.50
2022-11-13T15:45:16.048Z,9.60
2022-11-13T15:47:43.284Z,9.73
2022-11-13T15:50:13.950Z,11.57
2022-11-13T15:52:46.459Z,10.10
2022-11-13T15:55:27.362Z,11.02
2022-11-13T15:57:55.178Z,10.02
2022-11-13T16:00:26.242Z,9.70
2022-11-13T16:02:57.628Z,8.77
2022-11-13T16:05:28.932Z,8.48
2022-11-13T16:07:56.780Z,9.35
2022-11-13T16:10:27.087Z,10.18
2022-11-13T16:12:54.140Z,9.70
2022-11-13T16:15:21.736Z,9.80
2022-11-13T16:17:55.654Z,10.85
2022-11-13T16:20:22.438Z,10.35
2022-11-13T16:22:49.226Z,10.38
2022-11-13T16:25:19.755Z,11.07
2022-11-13T16:27:47.099Z,11.07
2022-11-13T16:30:23.025Z,9.82
2022-11-13T16:32:49.869Z,10.68
2022-11-13T16:35:19.152Z,12.18
2022-11-13T16:37:46.126Z,11.50
2022-11-13T16:40:22.590Z,11.27
2022-11-13T16:42:49.724Z,12.45
2022-11-13T16:45:16.591Z,12.40
2022-11-13T16:47:43.777Z,13.02
2022-11-13T16:50:18.346Z,11.70
2022-11-13T16:52:45.115Z,13.43
2022-11-13T16:55:11.951Z,14.00
2022-11-13T16:57:39.523Z,14.35
2022-11-13T17:00:09.083Z,14.70
2022-11-13T17:02:35.862Z,14.90
2022-11-13T17:05:02.728Z,14.88
2022-11-13T17:07:29.684Z,15.95
2022-11-13T17:10:24.157Z,15.45
2022-11-13T17:12:43.808Z,15.48
2022-11-13T17:15:10.994Z,15.13
2022-11-13T17:17:37.713Z,15.68
2022-11-13T17:20:04.992Z,16.60
2022-11-13T17:22:31.727Z,16.38
2022-11-13T17:24:58.467Z,16.27
2022-11-13T17:27:25.393Z,16.23
2022-11-13T17:29:52.153Z,16.80
2022-11-13T17:32:18.980Z,17.35
2022-11-13T17:34:45.744Z,18.35
2022-11-13T17:37:12.433Z,19.27
2022-11-13T17:39:39.208Z,19.02
2022-11-13T17:42:05.967Z,18.17
2022-11-13T17:44:32.666Z,18.05
2022-11-13T17:46:59.433Z,18.00
2022-11-13T17:49:26.166Z,17.90
2022-11-13T17:51:53.079Z,17.13
2022-11-13T17:54:19.804Z,17.42
2022-11-13T17:56:47.244Z,17.27
2022-11-13T17:59:14.081Z,16.88
2022-11-13T18:01:40.926Z,17.80
2022-11-13T18:04:07.784Z,18.10
2022-11-13T18:06:34.575Z,18.77
2022-11-13T18:09:01.390Z,16.52
2022-11-13T18:11:30.237Z,17.67
2022-11-13T18:13:56.981Z,17.65
2022-11-13T18:16:34.394Z,16.10
2022-11-13T18:19:03.780Z,16.23
2022-11-13T18:21:35.296Z,15.93
2022-11-13T18:24:05.988Z,15.93
2022-11-13T18:26:33.801Z,16.40
2022-11-13T18:29:01.960Z,16.50
2022-11-13T18:31:29.534Z,15.48
2022-11-13T18:33:59.257Z,15.20
2022-11-13T18:36:26.271Z,15.95
2022-11-13T18:38:53.246Z,16.02
2022-11-13T18:41:22.608Z,16.60
2022-11-13T18:43:51.954Z,15.70
2022-11-13T18:46:21.993Z,15.88
2022-11-13T18:48:49.909Z,15.77
2022-11-13T18:51:25.146Z,15.57
2022-11-13T18:53:53.035Z,15.95
2022-11-13T18:56:32.070Z,15.48
2022-11-13T18:59:00.144Z,16.05
2022-11-13T19:01:30.923Z,16.05
2022-11-13T19:04:22.225Z,15.15
2022-11-13T19:06:50.844Z,15.10
2022-11-13T19:09:18.434Z,15.07
2022-11-13T19:11:45.671Z,15.45
2022-11-13T19:14:18.220Z,14.50
2022-11-13T19:16:45.546Z,14.63
2022-11-13T19:19:23.430Z,14.48
2022-11-13T19:21:51.091Z,14.60
2022-11-13T19:24:18.057Z,14.70
2022-11-13T19:26:45.870Z,14.15
2022-11-13T19:29:13.028Z,14.48
2022-11-13T19:31:40.393Z,14.52
2022-11-13T19:34:08.721Z,14.73
2022-11-13T19:36:36.664Z,14.45
2022-11-13T19:39:04.348Z,13.45
2022-11-13T19:41:31.531Z,14.00
2022-11-13T19:44:00.263Z,15.00
2022-11-13T19:46:28.557Z,14.68
2022-11-13T19:48:55.375Z,15.73
2022-11-13T19:51:25.164Z,14.88
2022-11-13T19:53:57.960Z,15.13
2022-11-13T19:56:28.271Z,14.38
2022-11-13T19:58:56.021Z,14.23
2022-11-13T20:01:28.583Z,13.85
2022-11-13T20:04:01.496Z,13.65
2022-11-13T20:06:31.448Z,13.13
2022-11-13T20:08:59.887Z,14.13
2022-11-13T20:11:26.850Z,16.13
2022-11-13T20:13:55.610Z,14.57
2022-11-13T20:16:23.580Z,13.95
2022-11-13T20:18:51.746Z,15.45
2022-11-13T20:21:31.602Z,14.65
2022-11-13T20:24:00.582Z,14.77
2022-11-13T20:26:28.514Z,14.88
2022-11-13T20:28:55.448Z,15.77
2022-11-13T20:31:24.787Z,14.98
2022-11-13T20:33:55.297Z,14.30
2022-11-13T20:36:23.354Z,14.35
2022-11-13T20:38:56.658Z,14.50
2022-11-13T20:41:25.500Z,14.50
2022-11-13T20:43:55.756Z,15.35
2022-11-13T20:46:22.881Z,15.35
2022-11-13T20:48:50.293Z,15.27
2022-11-13T20:51:21.839Z,15.55
2022-11-13T20:53:49.766Z,15.40
2022-11-13T20:56:18.150Z,15.18
2022-11-13T20:58:45.381Z,15.70
2022-11-13T21:01:22.803Z,15.77
2022-11-13T21:03:49.794Z,18.63
2022-11-13T21:06:23.188Z,18.65
2022-11-13T21:08:50.274Z,17.60
2022-11-13T21:11:30.135Z,17.48
2022-11-13T21:13:58.173Z,15.55
2022-11-13T21:16:25.505Z,17.02
2022-11-13T21:18:52.281Z,18.35
2022-11-13T21:21:21.964Z,16.73
2022-11-13T21:23:49.337Z,18.20
2022-11-13T21:26:16.880Z,19.45
2022-11-13T21:28:44.078Z,17.92
2022-11-13T21:31:15.063Z,18.17
2022-11-13T21:33:44.626Z,16.80
2022-11-13T21:36:21.941Z,16.45
2022-11-13T21:38:53.960Z,16.85
2022-11-13T21:41:23.375Z,17.20
2022-11-13T21:44:01.791Z,18.45
2022-11-13T21:46:35.717Z,18.73
2022-11-13T21:51:37.854Z,18.27
2022-11-13T21:54:05.593Z,21.25
2022-11-13T21:56:36.501Z,20.42
2022-11-13T21:59:05.044Z,22.25
2022-11-13T22:01:37.833Z,23.02
2022-11-13T22:04:05.493Z,21.23
2022-11-13T22:06:37.616Z,23.90
2022-11-13T22:09:15.134Z,24.40
2022-11-13T22:11:42.137Z,23.67
2022-11-13T22:14:09.624Z,23.52
2022-11-13T22:16:45.422Z,24.65
2022-11-13T22:19:21.402Z,22.90
2022-11-13T22:21:52.196Z,23.40
2022-11-13T22:24:19.824Z,24.88
2022-11-13T22:26:47.776Z,24.67
2022-11-13T22:29:14.741Z,25.48
2022-11-13T22:31:41.655Z,25.20
2022-11-13T22:34:08.394Z,25.73
2022-11-13T22:36:37.441Z,27.00
2022-11-13T22:39:05.275Z,27.77
2022-11-13T22:41:35.320Z,28.25
2022-11-13T22:44:06.761Z,27.08
2022-11-13T22:46:36.240Z,26.50
2022-11-13T22:49:05.538Z,27.83
2022-11-13T22:51:41.526Z,28.40
2022-11-13T22:54:12.921Z,28.33
2022-11-13T22:56:41.512Z,30.42
2022-11-13T22:59:12.377Z,29.00
2022-11-13T23:01:42.960Z,29.63
2022-11-13T23:04:13.736Z,28.15
2022-11-13T23:06:41.572Z,28.10
2022-11-13T23:09:08.628Z,28.42
2022-11-13T23:11:39.249Z,27.63
2022-11-13T23:14:12.060Z,28.50
2022-11-13T23:16:39.281Z,28.35
2022-11-13T23:19:06.080Z,29.25
2022-11-13T23:21:33.567Z,30.58
2022-11-13T23:24:00.368Z,30.30
2022-11-13T23:26:28.340Z,26.77
2022-11-13T23:28:55.475Z,27.77
2022-11-13T23:31:23.344Z,30.73
2022-11-13T23:33:50.086Z,29.25
2022-11-13T23:36:18.093Z,28.15
2022-11-13T23:38:45.265Z,28.75
2022-11-13T23:41:12.343Z,29.17
2022-11-13T23:44:08.270Z,29.63
2022-11-13T23:46:26.125Z,30.83
2022-11-13T23:48:52.944Z,29.58
2022-11-13T23:51:19.669Z,32.40
2022-11-13T23:53:46.487Z,30.75
2022-11-13T23:56:13.287Z,30.38
2022-11-13T23:58:40.218Z,29.38
